Time;durP1;ratioP1;P1;durP2;ratioP2;P2;SDS_P1;SDS_P2;PMS_P1;PMS_P2;Temp;Humidity;BMP_temperature;BMP_pressure;BME280_temperature;BME280_humidity;BME280_pressure;Samples;Min_cycle;Max_cycle;Signal;HPM_P1;HPM_P2
2022/08/28 00:01:28;;;;;;;12.30;10.20;;;21.80;1.00;;;;;;5043382;28;20330;-74
2022/08/28 00:03:54;;;;;;;14.13;10.13;;;21.80;1.00;;;;;;5049736;28;20530;-74
2022/08/28 00:06:20;;;;;;;12.60;10.30;;;21.70;1.00;;;;;;5048293;28;20165;-74
2022/08/28 00:08:45;;;;;;;14.40;10.73;;;21.60;1.00;;;;;;5051034;28;20199;-74
2022/08/28 00:11:11;;;;;;;11.80;9.97;;;21.60;1.00;;;;;;5044334;28;20537;-74
2022/08/28 00:13:36;;;;;;;12.20;9.87;;;21.60;1.00;;;;;;5042404;28;20190;-74
2022/08/28 00:16:03;;;;;;;13.10;10.47;;;21.60;1.00;;;;;;5049573;28;20211;-74
2022/08/28 00:18:30;;;;;;;14.15;10.50;;;21.70;1.00;;;;;;5042739;28;20365;-74
2022/08/28 00:20:56;;;;;;;13.03;10.53;;;21.70;1.00;;;;;;5043886;28;20173;-74
2022/08/28 00:23:24;;;;;;;12.23;10.60;;;21.70;1.00;;;;;;5043399;28;20942;-74
2022/08/28 00:25:50;;;;;;;14.97;10.33;;;21.80;1.00;;;;;;5047933;28;20447;-75
2022/08/28 00:28:16;;;;;;;14.20;10.50;;;21.80;1.00;;;;;;5045055;28;20482;-74
2022/08/28 00:30:48;;;;;;;18.43;11.07;;;21.90;1.00;;;;;;5049700;28;20201;-75
2022/08/28 00:33:29;;;;;;;15.13;11.10;;;21.90;1.00;;;;;;5043625;28;20811;-73
2022/08/28 00:35:56;;;;;;;19.23;12.10;;;21.90;1.00;;;;;;5049556;28;20439;-74
2022/08/28 00:38:25;;;;;;;13.33;10.87;;;21.80;1.00;;;;;;5042747;28;20442;-75
2022/08/28 00:40:55;;;;;;;17.00;10.73;;;21.90;1.00;;;;;;5051790;28;20418;-74
2022/08/28 00:43:32;;;;;;;14.80;11.10;;;21.90;1.00;;;;;;5042294;28;20487;-75
2022/08/28 00:45:59;;;;;;;11.60;10.40;;;21.90;1.00;;;;;;5042896;28;20481;-75
2022/08/28 00:48:25;;;;;;;14.20;10.70;;;21.90;1.00;;;;;;5044946;28;20477;-75
2022/08/28 00:53:35;;;;;;;12.53;10.10;;;21.90;1.00;;;;;;5046595;28;20242;-75
2022/08/28 00:56:04;;;;;;;12.63;10.73;;;21.90;1.00;;;;;;5045578;28;20428;-75
2022/08/28 00:58:30;;;;;;;13.63;10.80;;;22.00;1.00;;;;;;5041053;28;20172;-75
2022/08/28 01:00:55;;;;;;;15.20;11.50;;;22.00;1.00;;;;;;5046059;28;20960;-74
2022/08/28 01:03:21;;;;;;;14.33;11.00;;;21.90;1.00;;;;;;5044068;28;20458;-75
2022/08/28 01:05:48;;;;;;;15.50;10.40;;;22.00;1.00;;;;;;5047623;28;20180;-75
2022/08/28 01:08:14;;;;;;;14.43;10.30;;;22.00;1.00;;;;;;5043021;28;20246;-75
2022/08/28 01:10:43;;;;;;;12.10;10.30;;;21.90;1.00;;;;;;5047915;28;20827;-74
2022/08/28 01:13:09;;;;;;;12.70;10.50;;;21.80;1.00;;;;;;5037170;28;20439;-75
2022/08/28 01:15:37;;;;;;;16.00;11.07;;;21.80;1.00;;;;;;5044949;28;20411;-75
2022/08/28 01:18:07;;;;;;;15.40;10.90;;;21.60;1.00;;;;;;5043005;28;20423;-75
2022/08/28 01:20:35;;;;;;;14.87;11.00;;;21.60;1.00;;;;;;5041195;28;20506;-75
2022/08/28 01:23:34;;;;;;;17.40;11.13;;;21.50;1.00;;;;;;5043558;28;20488;-75
2022/08/28 01:26:00;;;;;;;13.80;11.40;;;21.50;1.00;;;;;;5028706;28;20442;-74
2022/08/28 01:28:25;;;;;;;16.17;11.47;;;21.40;1.00;;;;;;5040260;28;20469;-75
2022/08/28 01:30:51;;;;;;;13.80;11.03;;;21.40;1.00;;;;;;5043059;28;20529;-75
2022/08/28 01:33:18;;;;;;;11.93;10.63;;;21.40;1.00;;;;;;5046921;28;20184;-74
2022/08/28 01:35:46;;;;;;;12.13;10.57;;;21.40;1.00;;;;;;5042826;28;20173;-74
2022/08/28 01:38:12;;;;;;;12.63;11.20;;;21.30;1.00;;;;;;5046694;28;20774;-75
2022/08/28 01:40:42;;;;;;;14.17;11.17;;;21.30;1.00;;;;;;5037153;28;20427;-75
2022/08/28 01:43:18;;;;;;;15.70;10.90;;;21.30;1.00;;;;;;5040730;28;20460;-74
2022/08/28 01:45:47;;;;;;;13.60;10.33;;;21.30;1.00;;;;;;5039913;28;20494;-75
2022/08/28 01:48:14;;;;;;;14.67;10.87;;;21.30;1.00;;;;;;5048717;28;20826;-74
2022/08/28 01:50:41;;;;;;;17.93;10.13;;;21.30;1.00;;;;;;5041757;28;20456;-75
2022/08/28 01:53:07;;;;;;;12.83;10.33;;;21.30;1.00;;;;;;5041632;28;20427;-74
2022/08/28 01:55:34;;;;;;;13.03;10.87;;;21.30;1.00;;;;;;5048805;28;20502;-75
2022/08/28 01:58:01;;;;;;;15.20;10.60;;;21.30;1.00;;;;;;5035309;28;20926;-75
2022/08/28 02:00:28;;;;;;;14.77;10.13;;;21.30;1.00;;;;;;5048211;28;20431;-75
2022/08/28 02:02:55;;;;;;;14.20;10.63;;;21.40;1.00;;;;;;5039532;28;20438;-75
2022/08/28 02:05:23;;;;;;;12.43;9.97;;;21.30;1.00;;;;;;5048302;28;20793;-75
2022/08/28 02:07:51;;;;;;;16.43;9.70;;;21.30;1.00;;;;;;5040927;28;20438;-75
2022/08/28 02:10:17;;;;;;;13.03;9.83;;;21.30;1.00;;;;;;5048742;28;20447;-75
2022/08/28 02:12:42;;;;;;;12.27;10.03;;;21.30;1.00;;;;;;5044788;28;21096;-75
2022/08/28 02:15:08;;;;;;;15.00;8.87;;;21.30;1.00;;;;;;5048779;28;20276;-75
2022/08/28 02:17:34;;;;;;;11.73;8.60;;;21.40;1.00;;;;;;5039340;28;20670;-75
2022/08/28 02:20:00;;;;;;;10.37;8.20;;;21.40;1.00;;;;;;5048163;28;20412;-74
2022/08/28 02:22:26;;;;;;;9.27;7.63;;;21.40;1.00;;;;;;5042215;28;20181;-74
2022/08/28 02:24:51;;;;;;;16.40;7.80;;;21.50;1.00;;;;;;5048497;28;20193;-75
2022/08/28 02:27:17;;;;;;;11.70;7.57;;;21.50;1.00;;;;;;5039698;28;20243;-75
2022/08/28 02:29:43;;;;;;;10.87;7.43;;;21.50;1.00;;;;;;5046369;28;20254;-75
2022/08/28 02:32:09;;;;;;;11.77;7.30;;;21.50;1.00;;;;;;5042161;28;20481;-75
2022/08/28 02:34:35;;;;;;;11.10;7.67;;;21.50;1.00;;;;;;5048396;28;20205;-75
2022/08/28 02:37:01;;;;;;;15.20;7.50;;;21.50;1.00;;;;;;5043237;28;20246;-75
2022/08/28 02:39:27;;;;;;;9.27;7.40;;;21.60;1.00;;;;;;5049099;28;20885;-75
2022/08/28 02:41:52;;;;;;;12.70;7.17;;;21.60;1.00;;;;;;5047131;28;20444;-75
2022/08/28 02:44:18;;;;;;;9.40;7.80;;;21.70;1.00;;;;;;5043791;28;20205;-75
2022/08/28 02:46:43;;;;;;;9.60;7.20;;;21.70;1.00;;;;;;5047248;28;20201;-74
2022/08/28 02:49:09;;;;;;;10.40;6.80;;;21.70;1.00;;;;;;5051128;28;20217;-75
2022/08/28 02:51:35;;;;;;;8.73;7.00;;;21.70;1.00;;;;;;5045747;28;20176;-76
2022/08/28 02:54:01;;;;;;;9.53;7.27;;;21.70;1.00;;;;;;5052446;28;20684;-75
2022/08/28 02:56:27;;;;;;;8.80;7.00;;;21.60;1.00;;;;;;5041671;28;20185;-75
2022/08/28 02:58:53;;;;;;;8.97;7.10;;;21.60;1.00;;;;;;5046444;28;20431;-75
2022/08/28 03:01:18;;;;;;;11.90;7.37;;;21.70;1.00;;;;;;5045984;28;20510;-75
2022/08/28 03:03:44;;;;;;;10.93;7.03;;;21.60;1.00;;;;;;5051705;28;20201;-74
2022/08/28 03:06:11;;;;;;;8.00;6.77;;;21.60;1.00;;;;;;5048515;28;20182;-75
2022/08/28 03:08:38;;;;;;;10.47;7.50;;;21.60;1.00;;;;;;5051063;28;20180;-75
2022/08/28 03:11:03;;;;;;;10.30;6.90;;;21.60;1.00;;;;;;5047793;28;21064;-75
2022/08/28 03:13:29;;;;;;;8.70;7.33;;;21.50;1.00;;;;;;5044626;28;20440;-75
2022/08/28 03:15:55;;;;;;;8.60;7.03;;;21.60;1.00;;;;;;5046286;28;20176;-75
2022/08/28 03:18:21;;;;;;;11.00;7.07;;;21.60;1.00;;;;;;5049471;28;20177;-75
2022/08/28 03:20:47;;;;;;;12.10;7.17;;;21.60;1.00;;;;;;5045973;28;20427;-75
2022/08/28 03:23:25;;;;;;;10.20;6.60;;;21.60;1.00;;;;;;5053789;28;20733;-75
2022/08/28 03:25:56;;;;;;;11.43;7.30;;;21.60;1.00;;;;;;5050155;28;20191;-74
2022/08/28 03:28:22;;;;;;;13.07;6.93;;;21.60;1.00;;;;;;5046541;28;20435;-75
2022/08/28 03:30:48;;;;;;;10.37;7.30;;;21.60;1.00;;;;;;5051077;28;20546;-75
2022/08/28 03:33:14;;;;;;;10.63;7.20;;;21.60;1.00;;;;;;5047706;28;20524;-74
2022/08/28 03:35:39;;;;;;;11.80;7.60;;;21.60;1.00;;;;;;5048664;28;20918;-74
2022/08/28 03:38:05;;;;;;;11.90;7.77;;;21.60;1.00;;;;;;5034788;28;20165;-75
2022/08/28 03:40:31;;;;;;;11.37;7.70;;;21.50;1.00;;;;;;5051381;28;20177;-75
2022/08/28 03:42:56;;;;;;;10.30;7.83;;;21.40;1.00;;;;;;5045255;28;20178;-75
2022/08/28 03:45:22;;;;;;;12.87;7.90;;;21.30;1.00;;;;;;5045494;28;20749;-75
2022/08/28 03:47:49;;;;;;;8.73;7.13;;;21.30;1.00;;;;;;5048421;28;21022;-75
2022/08/28 03:50:16;;;;;;;12.37;7.43;;;21.30;1.00;;;;;;5045838;28;20255;-73
2022/08/28 03:52:42;;;;;;;9.93;7.70;;;21.20;1.00;;;;;;5055061;28;20446;-73
2022/08/28 03:55:10;;;;;;;11.70;6.77;;;21.20;1.00;;;;;;5043840;28;20855;-74
2022/08/28 03:57:36;;;;;;;10.63;6.83;;;21.20;1.00;;;;;;5046241;28;20182;-74
2022/08/28 04:00:05;;;;;;;10.27;7.00;;;21.20;1.00;;;;;;5049737;28;20432;-73
2022/08/28 04:02:30;;;;;;;8.50;6.30;;;21.20;1.00;;;;;;5040739;28;20423;-73
2022/08/28 04:04:56;;;;;;;8.10;6.50;;;21.30;1.00;;;;;;5050166;28;20495;-73
2022/08/28 04:07:21;;;;;;;8.90;6.60;;;21.30;1.00;;;;;;5045477;28;20201;-73
2022/08/28 04:09:47;;;;;;;10.93;6.87;;;21.40;1.00;;;;;;5048874;28;20197;-74
2022/08/28 04:12:13;;;;;;;13.87;6.73;;;21.40;1.00;;;;;;5048063;28;20169;-73
2022/08/28 04:14:39;;;;;;;11.67;6.93;;;21.40;1.00;;;;;;5042557;28;20192;-73
2022/08/28 04:17:05;;;;;;;7.50;6.70;;;21.30;1.00;;;;;;5045332;28;20435;-73
2022/08/28 04:19:32;;;;;;;9.63;6.90;;;21.30;1.00;;;;;;5036621;28;20199;-73
2022/08/28 04:21:57;;;;;;;8.90;7.00;;;21.30;1.00;;;;;;5035519;28;20423;-74
2022/08/28 04:24:23;;;;;;;9.83;7.47;;;21.40;1.00;;;;;;5040848;28;20450;-74
2022/08/28 04:26:48;;;;;;;7.53;6.70;;;21.40;1.00;;;;;;5047045;28;20186;-74
2022/08/28 04:29:14;;;;;;;7.73;6.90;;;21.40;1.00;;;;;;5049033;28;20197;-73
2022/08/28 04:31:40;;;;;;;9.13;6.77;;;21.40;1.00;;;;;;5045931;28;20226;-74
2022/08/28 04:34:08;;;;;;;9.93;7.50;;;21.40;1.00;;;;;;5049266;28;20440;-74
2022/08/28 04:36:34;;;;;;;11.23;6.87;;;21.40;1.00;;;;;;5047312;28;20218;-73
2022/08/28 04:39:01;;;;;;;9.13;6.63;;;21.40;1.00;;;;;;5042072;28;20411;-73
2022/08/28 04:41:27;;;;;;;10.40;7.40;;;21.40;1.00;;;;;;5047445;28;20903;-74
2022/08/28 04:43:56;;;;;;;11.50;7.20;;;21.40;1.00;;;;;;5041478;28;20796;-73
2022/08/28 04:46:22;;;;;;;8.10;6.57;;;21.60;1.00;;;;;;5047107;28;20431;-73
2022/08/28 04:48:48;;;;;;;10.43;7.50;;;21.40;1.00;;;;;;5048081;28;20420;-74
2022/08/28 04:51:16;;;;;;;10.23;6.40;;;21.40;1.00;;;;;;5037605;28;20543;-73
2022/08/28 04:53:42;;;;;;;8.83;6.40;;;21.40;1.00;;;;;;5045994;28;20193;-74
2022/08/28 04:56:10;;;;;;;9.87;6.97;;;21.40;1.00;;;;;;5044846;28;20519;-74
2022/08/28 04:58:37;;;;;;;8.63;7.00;;;21.40;1.00;;;;;;5046392;28;20173;-73
2022/08/28 05:01:17;;;;;;;9.03;6.70;;;21.40;1.00;;;;;;5045284;28;21978;-74
2022/08/28 05:03:43;;;;;;;10.00;7.30;;;21.50;1.00;;;;;;5046378;28;20445;-73
2022/08/28 05:06:10;;;;;;;9.03;6.73;;;21.40;1.00;;;;;;5046494;28;20934;-74
2022/08/28 05:08:36;;;;;;;13.33;7.30;;;21.40;1.00;;;;;;5045061;28;20272;-73
2022/08/28 05:11:20;;;;;;;11.03;7.00;;;21.30;1.00;;;;;;5046772;28;20546;-73
2022/08/28 05:13:47;;;;;;;6.77;6.07;;;21.30;1.00;;;;;;5039237;28;20270;-73
2022/08/28 05:16:13;;;;;;;8.63;6.77;;;21.30;1.00;;;;;;5045969;28;20808;-73
2022/08/28 05:18:39;;;;;;;8.23;6.53;;;21.30;1.00;;;;;;5045777;28;20482;-73
2022/08/28 05:21:11;;;;;;;10.53;6.50;;;21.40;1.00;;;;;;5044592;28;20674;-74
2022/08/28 05:23:36;;;;;;;7.60;6.60;;;21.40;1.00;;;;;;5046552;28;20199;-73
2022/08/28 05:26:02;;;;;;;11.23;6.60;;;21.50;1.00;;;;;;5037729;28;20416;-73
2022/08/28 05:28:28;;;;;;;8.27;6.87;;;21.60;1.00;;;;;;5041906;28;20647;-74
2022/08/28 05:30:53;;;;;;;8.80;6.67;;;21.60;1.00;;;;;;5044166;28;20201;-72
2022/08/28 05:33:19;;;;;;;9.30;6.90;;;21.60;1.00;;;;;;5035899;28;20173;-73
2022/08/28 05:35:46;;;;;;;10.10;6.43;;;21.50;1.00;;;;;;5046885;28;20687;-73
2022/08/28 05:38:15;;;;;;;9.23;6.20;;;21.50;1.00;;;;;;5042617;28;20426;-74
2022/08/28 05:40:45;;;;;;;8.33;5.97;;;21.50;1.00;;;;;;5049318;28;20416;-74
2022/08/28 05:43:13;;;;;;;7.40;6.23;;;21.50;1.00;;;;;;5033962;28;20436;-74
2022/08/28 05:45:40;;;;;;;11.93;6.70;;;21.40;1.00;;;;;;5046240;28;20423;-74
2022/08/28 05:48:05;;;;;;;11.83;6.33;;;21.40;1.00;;;;;;5045101;28;20427;-74
2022/08/28 05:50:31;;;;;;;8.30;6.30;;;21.50;1.00;;;;;;5044674;28;20546;-74
2022/08/28 05:52:57;;;;;;;8.00;6.00;;;21.60;1.00;;;;;;5042895;28;20416;-74
2022/08/28 05:55:22;;;;;;;7.80;6.27;;;21.70;1.00;;;;;;5048392;28;20219;-73
2022/08/28 05:57:48;;;;;;;8.07;6.33;;;21.70;1.00;;;;;;5040749;28;20559;-75
2022/08/28 06:00:14;;;;;;;10.70;6.50;;;21.70;1.00;;;;;;5040672;28;20249;-74
2022/08/28 06:02:41;;;;;;;8.03;6.23;;;21.80;1.00;;;;;;5047158;28;20184;-74
2022/08/28 06:05:07;;;;;;;9.37;5.93;;;21.90;1.00;;;;;;5042518;28;20269;-74
2022/08/28 06:07:33;;;;;;;7.87;6.00;;;22.00;1.00;;;;;;5044652;28;20459;-73
2022/08/28 06:09:59;;;;;;;7.17;5.83;;;22.10;1.00;;;;;;5048922;28;20451;-73
2022/08/28 06:12:25;;;;;;;10.30;6.47;;;22.10;1.00;;;;;;5040395;28;20419;-74
2022/08/28 06:14:50;;;;;;;9.40;5.83;;;22.10;1.00;;;;;;5043800;28;20261;-74
2022/08/28 06:17:16;;;;;;;8.53;5.90;;;22.10;1.00;;;;;;5044070;28;20497;-74
2022/08/28 06:19:41;;;;;;;7.37;5.60;;;22.20;1.00;;;;;;5049749;28;20500;-74
2022/08/28 06:22:10;;;;;;;8.20;5.60;;;22.30;1.00;;;;;;5044551;28;20324;-74
2022/08/28 06:24:36;;;;;;;7.70;5.47;;;22.40;1.00;;;;;;5051827;28;20224;-74
2022/08/28 06:27:02;;;;;;;9.03;5.20;;;22.50;1.00;;;;;;5047065;28;20479;-74
2022/08/28 06:29:29;;;;;;;7.80;6.27;;;22.50;1.00;;;;;;5048519;28;20181;-74
2022/08/28 06:31:59;;;;;;;9.13;5.97;;;22.60;1.00;;;;;;5040679;28;20453;-74
2022/08/28 06:34:26;;;;;;;8.33;5.93;;;22.70;1.00;;;;;;5042538;28;20567;-74
2022/08/28 06:36:52;;;;;;;11.10;5.90;;;22.70;1.00;;;;;;5051837;28;20414;-74
2022/08/28 06:39:18;;;;;;;8.87;5.90;;;22.80;1.00;;;;;;5047203;28;20438;-74
2022/08/28 06:41:43;;;;;;;6.67;5.37;;;22.90;1.00;;;;;;5049808;28;20419;-75
2022/08/28 06:44:12;;;;;;;7.60;5.70;;;23.00;1.00;;;;;;5042607;28;20197;-73
2022/08/28 06:46:38;;;;;;;8.83;5.60;;;23.20;1.00;;;;;;5051964;28;20161;-73
2022/08/28 06:49:05;;;;;;;9.40;5.77;;;23.30;1.00;;;;;;5042242;28;20513;-73
2022/08/28 06:51:31;;;;;;;7.73;5.70;;;23.20;1.00;;;;;;5036236;28;20467;-73
2022/08/28 06:53:57;;;;;;;7.73;5.90;;;23.30;1.00;;;;;;5050975;28;20431;-73
2022/08/28 06:56:23;;;;;;;9.63;5.93;;;23.30;1.00;;;;;;5046971;28;20182;-73
2022/08/28 06:58:49;;;;;;;7.00;6.10;;;23.40;1.00;;;;;;5044750;28;20173;-74
2022/08/28 07:01:21;;;;;;;7.10;5.90;;;23.50;1.00;;;;;;5045145;28;20505;-74
2022/08/28 07:03:48;;;;;;;8.53;6.10;;;23.50;1.00;;;;;;5049542;28;20532;-74
2022/08/28 07:06:14;;;;;;;7.67;5.90;;;23.60;1.00;;;;;;5046263;28;20596;-74
2022/08/28 07:08:41;;;;;;;8.70;6.23;;;23.60;1.00;;;;;;5049407;28;20413;-74
2022/08/28 07:11:16;;;;;;;7.70;6.03;;;23.60;1.00;;;;;;5048371;28;20474;-74
2022/08/28 07:13:43;;;;;;;6.97;5.70;;;23.50;1.00;;;;;;5037980;28;20458;-74
2022/08/28 07:16:09;;;;;;;7.87;5.90;;;23.30;1.00;;;;;;5038702;28;20439;-73
2022/08/28 07:18:35;;;;;;;7.63;6.20;;;23.10;1.00;;;;;;5048222;28;20404;-75
2022/08/28 07:21:01;;;;;;;10.80;6.40;;;23.10;1.00;;;;;;5044578;28;20251;-74
2022/08/28 07:23:29;;;;;;;8.40;5.60;;;23.40;1.00;;;;;;5047665;28;20522;-75
2022/08/28 07:25:54;;;;;;;6.10;5.40;;;23.60;1.00;;;;;;5048593;28;20195;-75
2022/08/28 07:28:20;;;;;;;9.27;5.87;;;23.80;1.00;;;;;;5051103;28;20434;-74
2022/08/28 07:30:59;;;;;;;8.07;5.50;;;23.90;1.00;;;;;;5039053;28;20216;-75
2022/08/28 07:33:26;;;;;;;9.77;5.07;;;24.00;1.00;;;;;;5050696;28;20172;-76
2022/08/28 07:35:52;;;;;;;7.10;5.87;;;24.10;1.00;;;;;;5045003;28;20446;-74
2022/08/28 07:38:18;;;;;;;10.50;5.33;;;24.40;1.00;;;;;;5045312;28;20940;-74
2022/08/28 07:40:43;;;;;;;8.07;5.70;;;24.80;1.00;;;;;;5047109;28;20181;-74
2022/08/28 07:46:01;;;;;;;6.30;5.50;;;25.00;1.00;;;;;;5049773;28;20207;-75
2022/08/28 07:48:27;;;;;;;10.53;5.30;;;25.00;1.00;;;;;;5042699;28;20519;-74
2022/08/28 07:50:52;;;;;;;11.20;5.80;;;25.00;1.00;;;;;;5052478;28;20554;-74
2022/08/28 07:53:18;;;;;;;7.97;5.20;;;24.90;1.00;;;;;;5048998;28;20954;-73
2022/08/28 07:55:44;;;;;;;7.67;4.97;;;24.80;1.00;;;;;;5038801;28;20721;-73
2022/08/28 07:58:10;;;;;;;6.97;5.40;;;25.40;1.00;;;;;;5044573;28;20251;-73
2022/08/28 08:00:36;;;;;;;7.13;5.30;;;26.20;1.00;;;;;;5046445;28;20592;-76
2022/08/28 08:03:01;;;;;;;8.90;5.17;;;26.60;1.00;;;;;;5045915;28;20470;-73
2022/08/28 08:05:27;;;;;;;8.67;5.63;;;26.90;1.00;;;;;;5048198;28;20286;-74
2022/08/28 08:07:52;;;;;;;6.93;5.60;;;26.90;1.00;;;;;;5051832;28;20321;-73
2022/08/28 08:10:18;;;;;;;9.03;5.97;;;27.00;1.00;;;;;;5051896;28;20196;-73
2022/08/28 08:12:44;;;;;;;11.03;6.10;;;26.90;1.00;;;;;;5051465;28;20176;-73
2022/08/28 08:15:11;;;;;;;10.60;5.97;;;26.70;1.00;;;;;;5050946;28;20246;-73
2022/08/28 08:17:37;;;;;;;9.07;6.10;;;26.60;1.00;;;;;;5050953;28;20609;-73
2022/08/28 08:20:05;;;;;;;11.50;5.60;;;26.70;1.00;;;;;;5050833;28;20418;-74
2022/08/28 08:22:30;;;;;;;8.90;5.80;;;26.80;1.00;;;;;;5051036;28;20411;-74
2022/08/28 08:24:56;;;;;;;6.87;5.63;;;26.90;1.00;;;;;;5050639;28;20536;-75
2022/08/28 08:27:22;;;;;;;7.07;5.93;;;27.00;1.00;;;;;;5051918;28;20535;-75
2022/08/28 08:29:47;;;;;;;9.43;5.90;;;26.90;1.00;;;;;;5051375;28;20215;-74
2022/08/28 08:32:14;;;;;;;7.57;5.77;;;27.00;1.00;;;;;;5050423;28;20165;-75
2022/08/28 08:34:44;;;;;;;8.30;5.40;;;27.20;1.00;;;;;;5042568;28;20555;-75
2022/08/28 08:37:12;;;;;;;9.40;6.13;;;27.40;1.00;;;;;;5029466;28;20404;-74
2022/08/28 08:39:39;;;;;;;8.47;6.20;;;27.50;1.00;;;;;;5031337;28;20403;-75
2022/08/28 08:42:17;;;;;;;8.80;6.40;;;27.70;1.00;;;;;;5044857;28;20431;-75
2022/08/28 08:44:45;;;;;;;11.73;6.03;;;28.10;1.00;;;;;;5051164;28;20720;-75
2022/08/28 08:47:41;;;;;;;9.03;6.30;;;28.60;1.00;;;;;;5049916;28;20960;-75
2022/08/28 08:50:14;;;;;;;10.33;6.20;;;28.70;1.00;;;;;;5050428;28;20822;-75
2022/08/28 08:53:02;;;;;;;8.30;6.30;;;28.60;1.00;;;;;;5057504;28;20177;-75
2022/08/28 08:55:36;;;;;;;7.53;5.80;;;28.30;1.00;;;;;;5070766;28;20678;-75
2022/08/28 08:58:10;;;;;;;7.37;6.03;;;28.60;1.00;;;;;;5069680;28;20769;-75
2022/08/28 09:00:54;;;;;;;11.03;6.23;;;28.20;1.00;;;;;;5051315;28;20446;-75
2022/08/28 09:03:25;;;;;;;8.93;6.40;;;27.80;1.00;;;;;;5030460;28;20419;-75
2022/08/28 09:06:00;;;;;;;9.23;6.77;;;27.50;1.00;;;;;;5028920;28;20422;-75
2022/08/28 09:08:31;;;;;;;8.27;6.10;;;27.20;1.00;;;;;;5030944;28;20466;-75
2022/08/28 09:11:11;;;;;;;12.87;6.87;;;27.10;1.00;;;;;;5031584;28;20573;-74
2022/08/28 09:14:01;;;;;;;10.13;6.87;;;27.10;1.00;;;;;;5030777;28;20424;-75
2022/08/28 09:16:30;;;;;;;8.43;6.27;;;27.20;1.00;;;;;;5030656;28;20819;-75
2022/08/28 09:18:58;;;;;;;10.97;7.00;;;28.00;1.00;;;;;;5030433;28;20412;-75
2022/08/28 09:21:32;;;;;;;11.87;6.77;;;28.60;1.00;;;;;;5056853;28;20425;-75
2022/08/28 09:24:04;;;;;;;8.60;6.83;;;28.40;1.00;;;;;;5061873;28;20437;-75
2022/08/28 09:26:30;;;;;;;7.93;6.63;;;28.00;1.00;;;;;;5070322;28;20414;-75
2022/08/28 09:29:02;;;;;;;7.77;6.10;;;27.90;1.00;;;;;;5068757;28;20410;-75
2022/08/28 09:31:46;;;;;;;8.13;6.40;;;28.50;1.00;;;;;;5045690;28;20196;-75
2022/08/28 09:34:33;;;;;;;9.40;6.57;;;29.30;1.00;;;;;;5029961;28;20416;-75
2022/08/28 09:36:59;;;;;;;9.00;6.47;;;29.50;1.00;;;;;;5029234;28;20259;-75
2022/08/28 09:39:30;;;;;;;7.53;6.20;;;29.50;1.00;;;;;;5039142;28;20255;-75
2022/08/28 09:45:12;;;;;;;8.63;6.43;;;28.90;1.00;;;;;;5048249;28;20222;-75
2022/08/28 09:47:47;;;;;;;9.67;5.90;;;28.70;1.00;;;;;;5032727;28;20177;-75
2022/08/28 09:50:30;;;;;;;11.00;6.47;;;28.70;1.00;;;;;;5046071;28;20670;-75
2022/08/28 09:52:59;;;;;;;9.40;6.00;;;28.70;1.00;;;;;;5056199;28;20721;-75
2022/08/28 09:55:40;;;;;;;7.80;5.70;;;28.90;1.00;;;;;;5043098;28;20627;-75
2022/08/28 09:58:06;;;;;;;11.00;6.20;;;29.60;1.00;;;;;;5033268;28;20177;-75
2022/08/28 10:00:36;;;;;;;10.60;5.67;;;29.70;1.00;;;;;;5047008;28;20188;-75
2022/08/28 10:03:16;;;;;;;9.17;6.23;;;29.80;1.00;;;;;;5027206;28;20774;-75
2022/08/28 10:05:56;;;;;;;7.40;5.80;;;30.40;1.00;;;;;;5045893;28;20191;-75
2022/08/28 10:08:36;;;;;;;8.90;5.70;;;32.30;1.00;;;;;;5040426;28;20208;-75
2022/08/28 10:11:21;;;;;;;9.75;5.72;;;33.80;1.00;;;;;;5028789;28;20533;-75
2022/08/28 10:14:33;;;;;;;7.70;5.22;;;35.20;1.00;;;;;;5040014;28;20200;-75
2022/08/28 10:17:24;;;;;;;6.57;5.45;;;36.20;1.00;;;;;;5041768;28;20271;-76
2022/08/28 10:20:10;;;;;;;6.78;5.63;;;37.20;1.00;;;;;;5042122;28;20671;-76
2022/08/28 10:23:00;;;;;;;6.40;5.20;;;37.60;1.00;;;;;;5040668;28;20184;-76
2022/08/28 10:25:54;;;;;;;8.52;4.90;;;38.00;1.00;;;;;;5042988;28;20196;-76
2022/08/28 10:28:55;;;;;;;7.57;4.95;;;38.80;1.00;;;;;;5040817;28;20192;-76
2022/08/28 10:31:45;;;;;;;7.97;5.25;;;39.10;1.00;;;;;;5039239;28;20204;-76
2022/08/28 10:34:49;;;;;;;7.25;5.00;;;38.80;1.00;;;;;;5040569;28;20211;-76
2022/08/28 10:37:52;;;;;;;6.47;4.90;;;39.10;1.00;;;;;;5055061;28;20278;-76
2022/08/28 10:40:27;;;;;;;6.68;4.78;;;40.40;1.00;;;;;;5037226;28;20212;-76
2022/08/28 10:43:15;;;;;;;7.35;4.38;;;40.90;1.00;;;;;;5046510;28;20184;-76
2022/08/28 10:45:41;;;;;;;7.10;4.80;;;40.30;1.00;;;;;;5046939;28;20203;-76
2022/08/28 10:48:27;;;;;;;7.35;5.20;;;39.70;1.00;;;;;;5037409;28;20547;-76
2022/08/28 10:51:01;;;;;;;6.25;5.10;;;39.30;1.00;;;;;;5043898;28;20208;-77
2022/08/28 10:53:34;;;;;;;5.60;4.28;;;38.50;1.00;;;;;;5046563;28;20185;-76
2022/08/28 10:56:20;;;;;;;6.85;4.95;;;37.80;1.00;;;;;;5028833;28;20259;-76
2022/08/28 10:58:50;;;;;;;8.18;4.53;;;38.70;1.00;;;;;;5042264;28;20706;-76
2022/08/28 11:01:29;;;;;;;7.25;4.97;;;40.10;1.00;;;;;;5044165;28;20177;-76
2022/08/28 11:03:58;;;;;;;5.38;4.18;;;40.40;1.00;;;;;;5050872;28;20208;-76
2022/08/28 11:06:33;;;;;;;6.13;5.05;;;38.90;1.00;;;;;;5051147;28;20231;-76
2022/08/28 11:09:23;;;;;;;6.90;4.72;;;37.40;1.00;;;;;;5046685;28;20195;-76
2022/08/28 11:11:58;;;;;;;7.22;5.32;;;36.80;1.00;;;;;;5050755;28;20452;-75
2022/08/28 11:14:39;;;;;;;6.22;4.88;;;36.40;1.00;;;;;;5044553;28;20212;-75
2022/08/28 11:17:38;;;;;;;6.00;4.78;;;35.70;1.00;;;;;;5041808;28;20226;-75
2022/08/28 11:20:23;;;;;;;6.50;4.85;;;34.90;1.00;;;;;;5047847;28;20177;-75
2022/08/28 11:22:56;;;;;;;5.95;4.95;;;34.30;1.00;;;;;;5052305;28;20339;-75
2022/08/28 11:25:31;;;;;;;6.05;4.90;;;34.00;1.00;;;;;;5061738;28;20200;-75
2022/08/28 11:28:23;;;;;;;15.63;4.97;;;33.70;1.00;;;;;;5051452;28;20200;-75
2022/08/28 11:31:08;;;;;;;9.10;5.20;;;33.80;1.00;;;;;;5048241;28;20519;-75
2022/08/28 11:33:54;;;;;;;7.60;5.47;;;33.90;1.00;;;;;;5049131;28;20291;-75
2022/08/28 11:36:20;;;;;;;7.32;5.28;;;33.70;1.00;;;;;;5043053;28;20180;-75
2022/08/28 11:38:52;;;;;;;8.02;5.68;;;33.20;1.00;;;;;;5042439;28;20200;-75
2022/08/28 11:41:25;;;;;;;10.60;5.68;;;33.10;1.00;;;;;;5048067;28;20181;-75
2022/08/28 11:44:13;;;;;;;7.68;5.90;;;33.10;1.00;;;;;;5043536;28;20205;-75
2022/08/28 11:46:40;;;;;;;7.28;5.00;;;32.90;1.00;;;;;;5049391;28;20173;-75
2022/08/28 11:49:27;;;;;;;8.25;4.97;;;34.40;1.00;;;;;;5036432;28;20180;-75
2022/08/28 11:52:30;;;;;;;8.82;5.15;;;37.00;1.00;;;;;;5048143;28;20191;-75
2022/08/28 11:55:07;;;;;;;11.02;4.97;;;39.20;1.00;;;;;;5045663;28;20333;-75
2022/08/28 11:57:57;;;;;;;7.93;4.85;;;40.90;1.00;;;;;;5041370;28;20664;-76
2022/08/28 12:00:51;;;;;;;9.30;4.80;;;41.50;1.00;;;;;;5045574;28;20551;-75
2022/08/28 12:03:34;;;;;;;9.40;6.60;;;41.40;1.00;;;;;;5045369;28;20584;-75
2022/08/28 12:06:01;;;;;;;6.93;5.28;;;41.80;1.00;;;;;;5044656;28;20423;-75
2022/08/28 12:08:45;;;;;;;34.97;26.17;;;42.90;1.00;;;;;;5045849;28;20556;-75
2022/08/28 12:11:40;;;;;;;5.90;4.72;;;43.90;1.00;;;;;;5047614;28;20214;-74
2022/08/28 12:14:35;;;;;;;5.85;4.70;;;44.60;1.00;;;;;;5042221;28;20221;-75
2022/08/28 12:17:04;;;;;;;9.05;4.78;;;45.30;1.00;;;;;;5039386;28;20179;-75
2022/08/28 12:19:41;;;;;;;11.73;8.73;;;45.00;1.00;;;;;;5045598;28;20264;-75
2022/08/28 12:22:20;;;;;;;126.45;96.30;;;45.00;1.00;;;;;;5048648;28;20176;-75
2022/08/28 12:24:55;;;;;;;18.95;14.38;;;44.70;1.00;;;;;;5045939;28;20192;-75
2022/08/28 12:27:22;;;;;;;48.00;38.22;;;44.00;1.00;;;;;;5055566;28;20188;-75
2022/08/28 12:29:51;;;;;;;100.72;75.97;;;41.70;1.00;;;;;;5054547;28;20666;-75
2022/08/28 12:32:32;;;;;;;6.85;5.13;;;39.50;1.00;;;;;;5053967;28;20172;-75
2022/08/28 12:34:58;;;;;;;7.38;5.03;;;37.90;1.00;;;;;;5043197;28;20188;-75
2022/08/28 12:37:26;;;;;;;12.43;5.50;;;37.70;1.00;;;;;;5054398;28;20531;-74
2022/08/28 12:39:55;;;;;;;17.67;14.05;;;37.30;1.00;;;;;;5048838;28;20184;-75
2022/08/28 12:42:27;;;;;;;49.97;36.75;;;35.80;1.00;;;;;;5052334;28;20615;-74
2022/08/28 12:44:59;;;;;;;35.63;26.48;;;34.30;1.00;;;;;;5044732;28;20204;-74
2022/08/28 12:47:25;;;;;;;51.00;37.47;;;33.40;1.00;;;;;;5049177;28;20681;-74
2022/08/28 12:49:50;;;;;;;7.53;5.57;;;35.10;1.00;;;;;;5053024;28;20185;-74
2022/08/28 12:52:20;;;;;;;6.30;5.10;;;36.60;1.00;;;;;;5049905;28;20646;-74
2022/08/28 12:54:48;;;;;;;12.85;5.68;;;37.40;1.00;;;;;;5053630;28;20662;-74
2022/08/28 12:57:19;;;;;;;10.00;6.38;;;38.60;1.00;;;;;;5050795;28;20219;-75
2022/08/28 12:59:48;;;;;;;6.78;4.70;;;40.10;1.00;;;;;;5051356;28;20203;-75
2022/08/28 13:02:19;;;;;;;5.93;4.53;;;40.60;1.00;;;;;;5044788;28;20551;-75
2022/08/28 13:05:06;;;;;;;6.25;4.78;;;41.90;1.00;;;;;;5052999;28;20192;-75
2022/08/28 13:07:36;;;;;;;8.52;4.72;;;41.90;1.00;;;;;;5040392;28;20173;-74
2022/08/28 13:10:25;;;;;;;11.95;8.45;;;43.30;1.00;;;;;;5053124;28;20333;-75
2022/08/28 13:13:09;;;;;;;10.07;6.18;;;44.20;1.00;;;;;;5043222;28;20188;-75
2022/08/28 13:15:56;;;;;;;17.40;13.80;;;42.70;1.00;;;;;;5050025;28;20210;-75
2022/08/28 13:18:42;;;;;;;10.15;7.45;;;41.80;1.00;;;;;;5049575;28;20180;-75